createdAt,value
2019-05-30T00:00:50.535Z,96786.72
2019-05-30T00:03:21.311Z,96788.55
2019-05-30T00:05:52.603Z,96789.98
2019-05-30T00:08:24.127Z,96789.50
2019-05-30T00:10:56.419Z,96789.33
2019-05-30T00:13:27.068Z,96790.86
2019-05-30T00:15:59.318Z,96792.49
2019-05-30T00:18:43.138Z,96793.23
2019-05-30T00:21:13.574Z,96795.78
2019-05-30T00:23:43.995Z,96796.50
2019-05-30T00:26:14.732Z,96798.64
2019-05-30T00:28:45.175Z,96798.13
2019-05-30T00:31:17.898Z,96793.84
2019-05-30T00:33:48.373Z,96798.16
2019-05-30T00:36:18.771Z,96799.91
2019-05-30T00:38:49.138Z,96806.73
2019-05-30T00:41:19.535Z,96807.34
2019-05-30T00:43:50.645Z,96802.85
2019-05-30T00:46:21.127Z,96802.85
2019-05-30T00:48:53.029Z,96796.94
2019-05-30T00:51:23.723Z,96795.94
2019-05-30T00:53:58.594Z,96793.89
2019-05-30T00:56:29.063Z,96789.43
2019-05-30T00:59:00.915Z,96791.08
2019-05-30T01:01:34.609Z,96785.37
2019-05-30T01:04:10.407Z,96782.72
2019-05-30T01:06:41.850Z,96783.94
2019-05-30T01:09:12.254Z,96788.33
2019-05-30T01:11:48.666Z,96782.32
2019-05-30T01:14:19.072Z,96786.80
2019-05-30T01:16:49.636Z,96792.50
2019-05-30T01:19:20.059Z,96788.92
2019-05-30T01:21:51.561Z,96785.38
2019-05-30T01:24:22.114Z,96788.54
2019-05-30T01:26:53.000Z,96789.25
2019-05-30T01:29:23.649Z,96786.38
2019-05-30T01:31:54.092Z,96783.33
2019-05-30T01:34:24.589Z,96784.15
2019-05-30T01:36:55.054Z,96782.52
2019-05-30T01:39:25.818Z,96783.23
2019-05-30T01:41:57.650Z,96777.75
2019-05-30T01:44:28.300Z,96778.34
2019-05-30T01:47:00.086Z,96783.22
2019-05-30T01:49:31.761Z,96788.44
2019-05-30T01:52:02.446Z,96779.37
2019-05-30T01:54:33.422Z,96781.00
2019-05-30T01:57:04.691Z,96791.79
2019-05-30T01:59:35.150Z,96786.89
2019-05-30T02:02:07.079Z,96790.35
2019-05-30T02:04:41.086Z,96791.87
2019-05-30T02:07:12.022Z,96790.47
2019-05-30T02:09:42.449Z,96793.70
2019-05-30T02:12:12.898Z,96798.41
2019-05-30T02:14:43.269Z,96798.80
2019-05-30T02:17:13.939Z,96797.05
2019-05-30T02:19:44.362Z,96798.58
2019-05-30T02:22:15.128Z,96796.97
2019-05-30T02:24:47.137Z,96793.40
2019-05-30T02:27:17.849Z,96797.67
2019-05-30T02:29:49.332Z,96801.11
2019-05-30T02:32:19.790Z,96803.98
2019-05-30T02:34:51.664Z,96802.16
2019-05-30T02:37:22.066Z,96802.16
2019-05-30T02:39:54.564Z,96801.22
2019-05-30T02:42:24.979Z,96803.44
2019-05-30T02:44:55.440Z,96808.92
2019-05-30T02:47:25.915Z,96808.61
2019-05-30T02:49:56.841Z,96812.58
2019-05-30T02:52:27.272Z,96810.16
2019-05-30T02:54:57.679Z,96805.77
2019-05-30T02:57:28.109Z,96809.00
2019-05-30T02:59:58.488Z,96803.62
2019-05-30T03:02:28.941Z,96805.64
2019-05-30T03:04:59.317Z,96803.81
2019-05-30T03:07:29.748Z,96801.38
2019-05-30T03:10:02.709Z,96807.39
2019-05-30T03:12:33.778Z,96808.17
2019-05-30T03:15:06.398Z,96804.20
2019-05-30T03:17:36.687Z,96806.95
2019-05-30T03:20:17.664Z,96807.34
2019-05-30T03:22:39.223Z,96816.72
2019-05-30T03:25:11.049Z,96814.66
2019-05-30T03:27:41.890Z,96817.84
2019-05-30T03:30:27.447Z,96817.12
2019-05-30T03:33:19.103Z,96817.36
2019-05-30T03:35:30.316Z,96821.95
2019-05-30T03:37:57.255Z,96821.38
2019-05-30T03:40:29.644Z,96826.28
2019-05-30T03:43:15.978Z,96825.16
2019-05-30T03:45:46.826Z,96827.72
2019-05-30T03:48:17.396Z,96830.67
2019-05-30T03:50:51.034Z,96833.72
2019-05-30T03:53:21.493Z,96822.31
2019-05-30T03:55:57.550Z,96823.44
2019-05-30T03:58:59.833Z,96833.20
2019-05-30T04:01:54.903Z,96836.70
2019-05-30T04:04:29.738Z,96834.36
2019-05-30T04:07:11.978Z,96834.36
2019-05-30T04:09:44.095Z,96838.02
2019-05-30T04:12:40.084Z,96836.60
2019-05-30T04:15:18.557Z,96837.92
2019-05-30T04:17:50.011Z,96840.08
2019-05-30T04:20:22.848Z,96844.86
2019-05-30T04:22:52.505Z,96840.98
2019-05-30T04:25:23.212Z,96844.63
2019-05-30T04:27:53.673Z,96848.42
2019-05-30T04:30:24.087Z,96849.22
2019-05-30T04:32:54.567Z,96851.95
2019-05-30T04:35:24.985Z,96841.95
2019-05-30T04:37:55.379Z,96844.47
2019-05-30T04:40:26.160Z,96842.72
2019-05-30T04:42:56.558Z,96846.12
2019-05-30T04:45:28.187Z,96846.18
2019-05-30T04:47:59.187Z,96846.75
2019-05-30T04:50:29.587Z,96849.88
2019-05-30T04:53:00.486Z,96853.25
2019-05-30T04:55:30.885Z,96853.56
2019-05-30T04:58:01.295Z,96853.61
2019-05-30T05:00:31.780Z,96859.94
2019-05-30T05:03:02.269Z,96858.16
2019-05-30T05:05:33.029Z,96857.64
2019-05-30T05:08:03.905Z,96853.09
2019-05-30T05:10:34.317Z,96855.78
2019-05-30T05:13:04.890Z,96851.89
2019-05-30T05:15:35.305Z,96855.89
2019-05-30T05:18:05.672Z,96853.21
2019-05-30T05:20:36.555Z,96845.37
2019-05-30T05:23:06.956Z,96844.32
2019-05-30T05:25:37.690Z,96849.45
2019-05-30T05:28:08.061Z,96847.25
2019-05-30T05:30:38.501Z,96850.96
2019-05-30T05:33:08.950Z,96843.70
2019-05-30T05:35:41.776Z,96848.00
2019-05-30T05:38:12.203Z,96844.41
2019-05-30T05:40:42.676Z,96842.14
2019-05-30T05:43:13.124Z,96840.73
2019-05-30T05:45:43.509Z,96843.89
2019-05-30T05:48:14.232Z,96850.55
2019-05-30T05:50:44.673Z,96846.75
2019-05-30T05:53:15.102Z,96846.95
2019-05-30T05:55:45.582Z,96852.64
2019-05-30T05:58:19.207Z,96849.54
2019-05-30T06:00:51.270Z,96852.53
2019-05-30T06:03:24.150Z,96848.84
2019-05-30T06:05:57.877Z,96853.63
2019-05-30T06:08:28.334Z,96845.87
2019-05-30T06:10:59.099Z,96857.92
2019-05-30T06:13:30.750Z,96859.06
2019-05-30T06:16:02.866Z,96858.38
2019-05-30T06:18:33.297Z,96863.52
2019-05-30T06:21:03.662Z,96865.70
2019-05-30T06:23:34.322Z,96864.81
2019-05-30T06:26:04.744Z,96866.16
2019-05-30T06:28:35.366Z,96866.36
2019-05-30T06:31:06.666Z,96864.61
2019-05-30T06:33:37.093Z,96865.44
2019-05-30T06:36:07.551Z,96875.99
2019-05-30T06:38:38.306Z,96869.80
2019-05-30T06:41:08.755Z,96870.33
2019-05-30T06:43:39.173Z,96872.28
2019-05-30T06:46:11.030Z,96871.52
2019-05-30T06:48:43.786Z,96869.42
2019-05-30T06:51:14.924Z,96861.09
2019-05-30T06:53:45.297Z,96868.37
2019-05-30T06:56:16.131Z,96860.08
2019-05-30T06:58:48.992Z,96864.12
2019-05-30T07:01:20.009Z,96867.35
2019-05-30T07:03:52.236Z,96863.58
2019-05-30T07:06:23.875Z,96865.17
2019-05-30T07:08:55.605Z,96863.53
2019-05-30T07:11:29.299Z,96869.44
2019-05-30T07:14:03.162Z,96865.07
2019-05-30T07:16:35.257Z,96867.23
2019-05-30T07:19:05.671Z,96872.66
2019-05-30T07:21:36.150Z,96875.05
2019-05-30T07:24:08.995Z,96873.41
2019-05-30T07:26:39.602Z,96868.84
2019-05-30T07:29:10.165Z,96884.26
2019-05-30T07:31:44.190Z,96874.75
2019-05-30T07:34:14.669Z,96878.53
2019-05-30T07:36:45.137Z,96871.88
2019-05-30T07:39:15.652Z,96870.94
2019-05-30T07:42:05.167Z,96866.50
2019-05-30T07:44:26.667Z,96873.14
2019-05-30T07:46:57.178Z,96876.87
2019-05-30T07:49:28.263Z,96876.64
2019-05-30T07:51:59.367Z,96880.21
2019-05-30T07:54:30.981Z,96876.81
2019-05-30T07:57:01.652Z,96873.47
2019-05-30T07:59:34.708Z,96874.42
2019-05-30T08:02:05.289Z,96872.52
2019-05-30T08:04:35.809Z,96880.95
2019-05-30T08:07:06.293Z,96878.16
2019-05-30T08:09:36.717Z,96877.45
2019-05-30T08:12:07.183Z,96882.00
2019-05-30T08:14:38.155Z,96885.70
2019-05-30T08:17:12.880Z,96884.19
2019-05-30T08:19:43.348Z,96884.03
2019-05-30T08:22:14.314Z,96883.67
2019-05-30T08:24:47.590Z,96877.70
2019-05-30T08:27:18.822Z,96878.20
2019-05-30T08:29:49.191Z,96879.07
2019-05-30T08:32:28.345Z,96877.16
2019-05-30T08:35:00.329Z,96879.02
2019-05-30T08:37:35.070Z,96880.39
2019-05-30T08:40:10.116Z,96870.50
2019-05-30T08:42:42.509Z,96874.76
2019-05-30T08:45:31.625Z,96881.45
2019-05-30T08:48:05.169Z,96872.98
2019-05-30T08:50:54.643Z,96872.78
2019-05-30T08:53:25.539Z,96871.63
2019-05-30T08:56:24.120Z,96881.22
2019-05-30T08:59:28.890Z,96868.27
2019-05-30T09:02:03.683Z,96868.04
2019-05-30T09:05:06.133Z,96865.31
2019-05-30T09:07:49.833Z,96861.75
2019-05-30T09:10:20.275Z,96860.33
2019-05-30T09:12:55.172Z,96860.22
2019-05-30T09:15:26.282Z,96861.73
2019-05-30T09:17:56.939Z,96863.10
2019-05-30T09:20:30.763Z,96855.07
2019-05-30T09:23:00.253Z,96853.36
2019-05-30T09:25:30.779Z,96855.89
2019-05-30T09:28:01.308Z,96859.53
2019-05-30T09:30:31.905Z,96854.05
2019-05-30T09:33:02.817Z,96840.07
2019-05-30T09:35:33.205Z,96839.13
2019-05-30T09:38:04.091Z,96834.70
2019-05-30T09:40:35.961Z,96841.59
2019-05-30T09:43:06.716Z,96841.20
2019-05-30T09:45:46.019Z,96847.08
2019-05-30T09:48:19.413Z,96840.78
2019-05-30T09:50:51.123Z,96838.08
2019-05-30T09:53:21.604Z,96843.09
2019-05-30T09:55:55.098Z,96844.91
2019-05-30T09:58:26.120Z,96845.72
2019-05-30T10:00:56.756Z,96838.75
2019-05-30T10:03:27.298Z,96842.04
2019-05-30T10:06:00.020Z,96844.09
2019-05-30T10:08:34.853Z,96844.82
2019-05-30T10:11:05.274Z,96832.66
2019-05-30T10:13:37.119Z,96833.54
2019-05-30T10:16:08.457Z,96833.28
2019-05-30T10:18:39.370Z,96831.81
2019-05-30T10:21:10.137Z,96822.72
2019-05-30T10:23:40.612Z,96818.25
2019-05-30T10:26:11.468Z,96815.08
2019-05-30T10:28:54.438Z,96818.70
2019-05-30T10:31:25.151Z,96817.20
2019-05-30T10:33:56.920Z,96819.75
2019-05-30T10:36:43.423Z,96816.78
2019-05-30T10:39:07.720Z,96811.36
2019-05-30T10:41:44.577Z,96798.98
2019-05-30T10:44:15.886Z,96795.91
2019-05-30T10:46:48.638Z,96800.58
2019-05-30T10:49:33.650Z,96802.97
2019-05-30T10:51:57.445Z,96794.02
2019-05-30T10:54:25.651Z,96798.82
2019-05-30T10:56:56.195Z,96797.99
2019-05-30T10:59:27.019Z,96801.65
2019-05-30T11:01:57.913Z,96805.19
2019-05-30T11:04:28.347Z,96805.99
2019-05-30T11:07:16.207Z,96800.75
2019-05-30T11:09:54.805Z,96797.81
2019-05-30T11:12:26.654Z,96788.75
2019-05-30T11:15:01.269Z,96790.80
2019-05-30T11:17:40.802Z,96791.52
2019-05-30T11:20:13.808Z,96791.77
2019-05-30T11:22:47.877Z,96797.39
2019-05-30T11:25:22.302Z,96788.98
2019-05-30T11:27:55.133Z,96784.67
2019-05-30T11:30:25.815Z,96786.99
2019-05-30T11:32:57.296Z,96778.16
2019-05-30T11:35:31.531Z,96778.23
2019-05-30T11:38:16.724Z,96767.77
2019-05-30T11:40:53.382Z,96769.16
2019-05-30T11:43:27.785Z,96756.31
2019-05-30T11:45:58.338Z,96764.66
2019-05-30T11:48:30.622Z,96761.67
2019-05-30T11:51:08.393Z,96760.86
2019-05-30T11:53:39.111Z,96765.22
2019-05-30T11:56:12.835Z,96764.76
2019-05-30T11:58:43.491Z,96752.00
2019-05-30T12:01:14.233Z,96752.00
2019-05-30T12:03:44.652Z,96753.31
2019-05-30T12:06:20.688Z,96743.44
2019-05-30T12:08:59.098Z,96746.45
2019-05-30T12:11:35.705Z,96749.31
2019-05-30T12:14:08.158Z,96751.27
2019-05-30T12:16:38.986Z,96739.06
2019-05-30T12:19:15.649Z,96739.58
2019-05-30T12:21:46.136Z,96741.15
2019-05-30T12:24:18.886Z,96738.63
2019-05-30T12:26:49.581Z,96735.20
2019-05-30T12:29:20.030Z,96735.12
2019-05-30T12:31:56.028Z,96737.33
2019-05-30T12:34:23.099Z,96742.15
2019-05-30T12:36:54.333Z,96737.66
2019-05-30T12:39:26.390Z,96740.63
2019-05-30T12:42:03.419Z,96731.82
2019-05-30T12:44:40.256Z,96738.30
2019-05-30T12:47:13.226Z,96737.34
2019-05-30T12:49:44.073Z,96729.45
2019-05-30T12:52:16.060Z,96731.57
2019-05-30T12:54:48.305Z,96731.34
2019-05-30T12:57:18.941Z,96730.44
2019-05-30T12:59:49.530Z,96721.03
2019-05-30T13:02:23.095Z,96723.70
2019-05-30T13:05:00.976Z,96731.61
2019-05-30T13:07:33.196Z,96732.33
2019-05-30T13:10:06.142Z,96736.93
2019-05-30T13:12:43.111Z,96727.88
2019-05-30T13:15:16.919Z,96724.16
2019-05-30T13:17:47.559Z,96724.19
2019-05-30T13:20:21.976Z,96730.36
2019-05-30T13:22:53.080Z,96727.56
2019-05-30T13:25:26.462Z,96727.86
2019-05-30T13:27:57.731Z,96733.67
2019-05-30T13:30:28.295Z,96730.66
2019-05-30T13:32:59.018Z,96728.58
2019-05-30T13:35:29.495Z,96723.71
2019-05-30T13:38:05.398Z,96721.30
2019-05-30T13:40:46.805Z,96722.37
2019-05-30T13:43:17.303Z,96717.64
2019-05-30T13:45:47.733Z,96720.14
2019-05-30T13:48:18.300Z,96722.13
2019-05-30T13:50:49.467Z,96720.11
2019-05-30T13:53:20.672Z,96717.48
2019-05-30T13:55:51.137Z,96722.45
2019-05-30T13:58:22.106Z,96720.81
2019-05-30T14:00:52.444Z,96720.81
2019-05-30T14:03:23.079Z,96718.96
2019-05-30T14:05:57.146Z,96717.81
2019-05-30T14:08:41.139Z,96711.83
2019-05-30T14:11:08.667Z,96718.55
2019-05-30T14:13:39.289Z,96712.12
2019-05-30T14:16:11.091Z,96699.05
2019-05-30T14:18:44.106Z,96702.98
2019-05-30T14:21:16.267Z,96702.19
2019-05-30T14:23:47.698Z,96704.20
2019-05-30T14:26:19.744Z,96704.63
2019-05-30T14:28:50.128Z,96694.98
2019-05-30T14:31:21.160Z,96691.59
2019-05-30T14:33:55.768Z,96692.34
2019-05-30T14:36:26.229Z,96704.09
2019-05-30T14:39:06.843Z,96701.42
2019-05-30T14:41:37.643Z,96704.66
2019-05-30T14:44:12.154Z,96707.25
2019-05-30T14:46:48.374Z,96708.19
2019-05-30T14:49:19.181Z,96701.34
2019-05-30T14:51:52.330Z,96703.94
2019-05-30T14:54:23.085Z,96692.63
2019-05-30T14:56:54.317Z,96693.95
2019-05-30T14:59:27.424Z,96687.70
2019-05-30T15:02:05.239Z,96692.34
2019-05-30T15:04:36.162Z,96699.05
2019-05-30T15:07:07.407Z,96702.00
2019-05-30T15:09:43.108Z,96695.78
2019-05-30T15:12:16.879Z,96693.89
2019-05-30T15:14:49.255Z,96696.91
2019-05-30T15:17:30.051Z,96692.50
2019-05-30T15:20:00.431Z,96700.41
2019-05-30T15:22:31.937Z,96698.57
2019-05-30T15:25:05.660Z,96691.05
2019-05-30T15:27:38.666Z,96688.53
2019-05-30T15:30:12.724Z,96695.13
2019-05-30T15:32:49.005Z,96694.97
2019-05-30T15:35:21.908Z,96698.45
2019-05-30T15:37:55.885Z,96686.97
2019-05-30T15:40:32.178Z,96685.81
2019-05-30T15:43:20.632Z,96689.98
2019-05-30T15:45:52.142Z,96681.75
2019-05-30T15:48:28.918Z,96677.98
2019-05-30T15:51:03.195Z,96677.04
2019-05-30T15:53:34.081Z,96688.41
2019-05-30T15:56:04.522Z,96682.23
2019-05-30T15:58:37.115Z,96682.22
2019-05-30T16:01:07.784Z,96686.45
2019-05-30T16:03:43.325Z,96684.05
2019-05-30T16:06:14.942Z,96684.96
2019-05-30T16:08:49.723Z,96688.96
2019-05-30T16:11:26.599Z,96684.73
2019-05-30T16:14:05.614Z,96675.64
2019-05-30T16:16:47.705Z,96673.34
2019-05-30T16:22:14.288Z,96676.67
2019-05-30T16:24:48.617Z,96676.99
2019-05-30T16:27:23.863Z,96683.00
2019-05-30T16:29:55.354Z,96685.59
2019-05-30T16:32:26.535Z,96686.57
2019-05-30T16:38:16.027Z,96684.14
2019-05-30T16:40:47.691Z,96680.82
2019-05-30T16:43:18.954Z,96679.54
2019-05-30T16:45:50.448Z,96677.37
2019-05-30T16:48:22.933Z,96686.54
2019-05-30T16:50:56.366Z,96680.55
2019-05-30T16:53:30.457Z,96692.16
2019-05-30T16:56:04.905Z,96682.95
2019-05-30T16:58:39.467Z,96679.89
2019-05-30T17:01:15.759Z,96684.41
2019-05-30T17:03:49.021Z,96686.36
2019-05-30T17:06:22.565Z,96683.39
2019-05-30T17:08:55.125Z,96678.84
2019-05-30T17:11:31.041Z,96679.89
2019-05-30T17:14:07.100Z,96681.62
2019-05-30T17:20:39.269Z,96681.81
2019-05-30T17:23:10.257Z,96681.84
2019-05-30T17:25:41.115Z,96681.25
2019-05-30T17:28:16.169Z,96685.50
2019-05-30T17:30:48.090Z,96683.44
2019-05-30T17:33:36.986Z,96681.15
2019-05-30T17:36:10.399Z,96685.73
2019-05-30T17:38:43.437Z,96680.64
2019-05-30T17:41:14.839Z,96683.25
2019-05-30T17:43:47.715Z,96688.22
2019-05-30T17:46:27.769Z,96685.33
2019-05-30T17:48:58.670Z,96692.51
2019-05-30T17:51:30.015Z,96695.50
2019-05-30T17:54:02.328Z,96690.83
2019-05-30T17:56:32.733Z,96691.29
2019-05-30T17:59:05.850Z,96694.03
2019-05-30T18:01:41.218Z,96700.84
2019-05-30T18:04:15.702Z,96706.45
2019-05-30T18:06:52.090Z,96702.83
2019-05-30T18:09:23.024Z,96710.03
2019-05-30T18:11:56.091Z,96709.11
2019-05-30T18:14:27.181Z,96703.36
2019-05-30T18:17:01.082Z,96707.04
2019-05-30T18:19:38.203Z,96705.23
2019-05-30T18:22:13.430Z,96703.20
2019-05-30T18:24:47.096Z,96708.82
2019-05-30T18:27:21.740Z,96710.32
2019-05-30T18:29:52.197Z,96715.53
2019-05-30T18:32:24.082Z,96717.05
2019-05-30T18:34:57.365Z,96720.64
2019-05-30T18:37:30.417Z,96718.84
2019-05-30T18:40:16.778Z,96719.23
2019-05-30T18:42:50.028Z,96719.35
2019-05-30T18:45:24.961Z,96723.48
2019-05-30T18:47:55.903Z,96717.86
2019-05-30T18:50:35.704Z,96722.83
2019-05-30T18:53:07.123Z,96722.36
2019-05-30T18:55:39.012Z,96721.05
2019-05-30T18:58:19.310Z,96726.26
2019-05-30T19:00:50.239Z,96724.92
2019-05-30T19:03:24.494Z,96727.17
2019-05-30T19:05:59.973Z,96725.84
2019-05-30T19:08:36.165Z,96736.41
2019-05-30T19:11:08.247Z,96728.12
2019-05-30T19:13:38.322Z,96732.22
2019-05-30T19:16:14.833Z,96735.53
2019-05-30T19:18:45.273Z,96738.26
2019-05-30T19:21:22.503Z,96741.28
2019-05-30T19:24:00.440Z,96747.52
2019-05-30T19:26:43.163Z,96746.75
2019-05-30T19:29:13.596Z,96758.92
2019-05-30T19:31:43.986Z,96758.16
2019-05-30T19:34:20.750Z,96753.54
2019-05-30T19:36:55.193Z,96761.41
2019-05-30T19:39:25.623Z,96757.11
2019-05-30T19:41:57.613Z,96760.39
2019-05-30T19:44:28.230Z,96762.84
2019-05-30T19:47:02.764Z,96759.60
2019-05-30T19:49:40.392Z,96761.27
2019-05-30T19:52:18.610Z,96752.12
2019-05-30T19:54:53.343Z,96760.81
2019-05-30T19:57:29.384Z,96767.87
2019-05-30T20:00:00.164Z,96764.64
2019-05-30T20:02:31.897Z,96760.09
2019-05-30T20:05:04.148Z,96764.97
2019-05-30T20:07:35.163Z,96771.75
2019-05-30T20:10:06.203Z,96770.91
2019-05-30T20:12:38.950Z,96765.25
2019-05-30T20:15:10.744Z,96762.28
2019-05-30T20:17:41.864Z,96766.36
2019-05-30T20:20:16.926Z,96767.98
2019-05-30T20:22:47.371Z,96769.87
2019-05-30T20:25:23.283Z,96769.10
2019-05-30T20:27:54.248Z,96770.18
2019-05-30T20:30:33.610Z,96769.91
2019-05-30T20:33:07.106Z,96769.37
2019-05-30T20:35:43.394Z,96769.91
2019-05-30T20:38:22.969Z,96773.42
2019-05-30T20:40:53.763Z,96778.28
2019-05-30T20:43:24.574Z,96775.58
2019-05-30T20:45:58.081Z,96778.04
2019-05-30T20:48:29.255Z,96777.77
2019-05-30T20:51:00.455Z,96776.16
2019-05-30T20:53:30.868Z,96781.81
2019-05-30T20:56:02.994Z,96785.59
2019-05-30T20:58:40.027Z,96793.95
2019-05-30T21:01:14.800Z,96787.78
2019-05-30T21:03:45.897Z,96792.91
2019-05-30T21:06:17.076Z,96792.09
2019-05-30T21:09:08.089Z,96794.25
2019-05-30T21:11:42.183Z,96789.12
2019-05-30T21:14:27.225Z,96795.88
2019-05-30T21:16:52.290Z,96798.00
2019-05-30T21:19:22.787Z,96790.75
2019-05-30T21:21:54.195Z,96794.25
2019-05-30T21:24:25.084Z,96796.14
2019-05-30T21:26:55.819Z,96795.06
2019-05-30T21:29:27.747Z,96795.59
2019-05-30T21:31:58.235Z,96793.70
2019-05-30T21:34:31.938Z,96795.06
2019-05-30T21:37:03.850Z,96791.58
2019-05-30T21:39:34.499Z,96794.79
2019-05-30T21:42:08.085Z,96795.89
2019-05-30T21:44:38.626Z,96794.81
2019-05-30T21:47:09.671Z,96791.05
2019-05-30T21:49:40.888Z,96793.20
2019-05-30T21:52:12.786Z,96796.44
2019-05-30T21:54:43.817Z,96804.52
2019-05-30T21:57:14.644Z,96801.02
2019-05-30T21:59:48.910Z,96798.08
2019-05-30T22:02:25.992Z,96799.42
2019-05-30T22:04:57.955Z,96803.47
2019-05-30T22:07:31.706Z,96791.61
2019-05-30T22:10:02.277Z,96795.11
2019-05-30T22:12:35.764Z,96795.91
2019-05-30T22:15:08.104Z,96794.83
2019-05-30T22:17:41.621Z,96795.91
2019-05-30T22:20:12.645Z,96801.03
2019-05-30T22:22:43.878Z,96793.48
2019-05-30T22:25:17.244Z,96798.37
2019-05-30T22:27:50.463Z,96797.83
2019-05-30T22:30:21.165Z,96798.09
2019-05-30T22:32:52.796Z,96801.33
2019-05-30T22:35:23.863Z,96798.63
2019-05-30T22:37:54.261Z,96806.98
2019-05-30T22:40:24.734Z,96802.40
2019-05-30T22:42:56.394Z,96801.59
2019-05-30T22:45:27.275Z,96802.96
2019-05-30T22:47:59.313Z,96800.80
2019-05-30T22:50:30.775Z,96795.68
2019-05-30T22:53:01.206Z,96794.33
2019-05-30T22:55:31.616Z,96791.91
2019-05-30T22:58:02.043Z,96795.41
2019-05-30T23:00:33.398Z,96795.94
2019-05-30T23:03:04.294Z,96790.58
2019-05-30T23:05:35.015Z,96799.20
2019-05-30T23:08:05.882Z,96797.85
2019-05-30T23:10:36.537Z,96791.09
2019-05-30T23:13:10.220Z,96794.05
2019-05-30T23:15:42.002Z,96788.96
2019-05-30T23:18:12.575Z,96788.42
2019-05-30T23:20:44.105Z,96788.69
2019-05-30T23:23:14.555Z,96790.56
2019-05-30T23:25:45.255Z,96796.22
2019-05-30T23:28:15.867Z,96787.33
2019-05-30T23:30:49.821Z,96794.33
2019-05-30T23:33:21.178Z,96800.83
2019-05-30T23:35:52.306Z,96796.78
2019-05-30T23:38:23.064Z,96795.70
2019-05-30T23:40:53.571Z,96791.11
2019-05-30T23:43:27.769Z,96785.72
2019-05-30T23:46:02.041Z,96788.41
2019-05-30T23:48:32.157Z,96791.13
2019-05-30T23:51:02.734Z,96785.47
2019-05-30T23:53:33.110Z,96787.89
2019-05-30T23:56:03.628Z,96787.63
2019-05-30T23:58:35.952Z,96786.00
